Marathon Airport Marathon CA
ICAO: CYSP
IATA: YSP
Category: Medium
Scheduled Services: No

Elevation: 1035 ft
TransAlt. 3400 ft.

Airport Communications:
WINNIPEG CNTR:134.075
WINNIPEG RDO:123.55
ATF/UNICOM:122.8

CYSP Zoom In..

If you have problems with the map follow the link
https://www.worldairports.se/pages/airport.php?
ICAO=CYSP

Runways:

(A) RW 16 length 3933 ft width 100 ft
---- / hdg 159

(B) RW 34 length 3933 ft width 100 ft
---- / hdg 339

Location; CYSP
Day. 18 / Time. 21.00 Zulu
* Altimeter: 30.30
* Temperature: -26° c. 14.8°f.
* Wind from: 360° Speed 06 kn.
Dewpoint: -32° c.
Visibility: 15 Statute Miles.
Clouds: Few 1800 ft.
Clouds: Few 23000 ft.

CYSP 182100Z 36006KT 340V070 15SM FEW018 FEW230 M26/M32 A3030 RMK SC1CI1 PRESRR SLP304


Wind From 360°
Speed 06 kn.

 
 
jpsmedia.com for Web Design worldairports.se 2019   terms of use